createdAt,value
2016-06-18T00:00:56.882Z,99.99
2016-06-18T00:01:57.527Z,99.99
2016-06-18T00:02:57.576Z,99.99
2016-06-18T00:03:57.002Z,99.99
2016-06-18T00:04:57.630Z,99.99
2016-06-18T00:05:57.072Z,99.99
2016-06-18T00:06:57.715Z,99.99
2016-06-18T00:07:57.735Z,99.99
2016-06-18T00:08:57.191Z,99.99
2016-06-18T00:09:57.211Z,99.99
2016-06-18T00:10:57.855Z,99.99
2016-06-18T00:11:57.296Z,99.99
2016-06-18T00:12:57.331Z,99.99
2016-06-18T00:13:57.975Z,99.99
2016-06-18T00:14:57.384Z,99.99
2016-06-18T00:15:57.434Z,99.99
2016-06-18T00:16:57.469Z,99.99
2016-06-18T00:17:57.503Z,99.99
2016-06-18T00:18:58.148Z,99.99
2016-06-18T00:19:58.182Z,99.99
2016-06-18T00:20:58.217Z,99.99
2016-06-18T00:21:57.643Z,99.99
2016-06-18T00:22:58.303Z,99.99
2016-06-18T00:23:58.338Z,99.99
2016-06-18T00:24:58.372Z,99.99
2016-06-18T00:25:57.813Z,99.99
2016-06-18T00:26:58.442Z,99.99
2016-06-18T00:27:58.460Z,99.99
2016-06-18T00:28:58.511Z,99.99
2016-06-18T00:29:57.936Z,99.99
2016-06-18T00:30:58.580Z,99.99
2016-06-18T00:31:58.616Z,99.99
2016-06-18T00:32:58.649Z,99.99
2016-06-18T00:33:58.700Z,99.99
2016-06-18T00:34:58.109Z,99.99
2016-06-18T00:35:58.176Z,99.99
2016-06-18T00:36:58.195Z,99.99
2016-06-18T00:37:58.261Z,99.99
2016-06-18T00:38:58.264Z,99.99
2016-06-18T00:39:58.908Z,99.99
2016-06-18T00:40:58.333Z,99.99
2016-06-18T00:41:58.978Z,99.99
2016-06-18T00:42:58.451Z,99.99
2016-06-18T00:43:59.047Z,99.99
2016-06-18T00:44:59.082Z,99.99
2016-06-18T00:45:58.522Z,99.99
2016-06-18T00:46:58.557Z,99.99
2016-06-18T00:47:59.201Z,99.99
2016-06-18T00:48:59.236Z,99.99
2016-06-18T00:49:59.271Z,99.99
2016-06-18T00:50:59.305Z,99.99
2016-06-18T00:51:59.341Z,99.99
2016-06-18T00:52:58.766Z,99.99
2016-06-18T00:53:58.816Z,99.99
2016-06-18T00:54:59.445Z,99.99
2016-06-18T00:55:58.870Z,99.99
2016-06-18T00:56:59.514Z,99.99
2016-06-18T00:57:59.549Z,99.99
2016-06-18T00:58:59.599Z,99.99
2016-06-18T00:59:59.024Z,99.99
2016-06-18T01:00:59.669Z,99.99
2016-06-18T01:01:59.094Z,99.99
2016-06-18T01:02:59.737Z,99.99
2016-06-18T01:03:59.163Z,99.99
2016-06-18T01:04:59.198Z,99.99
2016-06-18T01:05:59.233Z,99.99
2016-06-18T01:06:59.876Z,99.99
2016-06-18T01:07:59.927Z,99.99
2016-06-18T01:08:59.946Z,99.99
2016-06-18T01:09:59.980Z,99.99
2016-06-18T01:11:00.015Z,99.99
2016-06-18T01:11:59.441Z,99.99
2016-06-18T01:13:00.101Z,99.99
2016-06-18T01:13:59.526Z,99.99
2016-06-18T01:14:59.561Z,99.99
2016-06-18T01:15:59.595Z,99.99
2016-06-18T01:17:00.240Z,99.99
2016-06-18T01:18:00.274Z,99.99
2016-06-18T01:19:00.325Z,99.99
2016-06-18T01:20:00.343Z,99.99
2016-06-18T01:21:00.394Z,99.99
2016-06-18T01:22:00.413Z,99.99
2016-06-18T01:23:00.463Z,99.99
2016-06-18T01:23:59.890Z,99.99
2016-06-18T01:24:59.923Z,99.99
2016-06-18T01:26:00.567Z,99.99
2016-06-18T01:26:59.993Z,99.99
2016-06-18T01:28:00.637Z,99.99
2016-06-18T01:29:00.062Z,99.99
2016-06-18T01:30:00.097Z,99.99
2016-06-18T01:31:00.148Z,99.99
2016-06-18T01:32:00.792Z,99.99
2016-06-18T01:33:00.217Z,99.99
2016-06-18T01:34:00.861Z,99.99
2016-06-18T01:35:00.270Z,99.99
2016-06-18T01:36:00.930Z,99.99
2016-06-18T01:37:00.965Z,99.99
2016-06-18T01:38:00.391Z,99.99
2016-06-18T01:39:00.425Z,99.99
2016-06-18T01:40:00.460Z,99.99
2016-06-18T01:41:00.494Z,99.99
2016-06-18T01:42:00.530Z,99.99
2016-06-18T01:43:01.173Z,99.99
2016-06-18T01:44:01.208Z,99.99
2016-06-18T01:45:00.649Z,99.99
2016-06-18T01:46:00.684Z,99.99
2016-06-18T01:47:01.328Z,99.99
2016-06-18T01:48:00.753Z,99.99
2016-06-18T01:49:00.788Z,99.99
2016-06-18T01:50:01.433Z,99.99
2016-06-18T01:51:00.872Z,99.99
2016-06-18T01:52:01.501Z,99.99
2016-06-18T01:53:00.927Z,99.99
2016-06-18T01:54:00.980Z,99.99
2016-06-18T01:55:01.627Z,99.99
2016-06-18T01:56:01.648Z,99.99
2016-06-18T01:57:01.686Z,99.99
2016-06-18T01:58:01.131Z,99.99
2016-06-18T01:59:01.167Z,99.99
2016-06-18T02:00:01.202Z,99.99
2016-06-18T02:01:01.239Z,99.99
2016-06-18T02:02:01.884Z,99.99
2016-06-18T02:03:01.310Z,99.99
2016-06-18T02:04:01.345Z,99.99
2016-06-18T02:05:01.990Z,99.99
2016-06-18T02:06:01.432Z,99.99
2016-06-18T02:07:02.061Z,99.99
2016-06-18T02:08:01.502Z,99.99
2016-06-18T02:09:01.537Z,99.99
2016-06-18T02:10:01.572Z,99.99
2016-06-18T02:11:02.216Z,99.99
2016-06-18T02:12:02.251Z,99.99
2016-06-18T02:13:02.287Z,99.99
2016-06-18T02:14:01.712Z,99.99
2016-06-18T02:15:02.356Z,99.99
2016-06-18T02:16:01.797Z,99.99
2016-06-18T02:17:02.441Z,99.99
2016-06-18T02:18:01.866Z,99.99
2016-06-18T02:19:01.885Z,99.99
2016-06-18T02:20:02.529Z,99.99
2016-06-18T02:21:02.564Z,99.99
2016-06-18T02:22:02.005Z,99.99
2016-06-18T02:23:02.039Z,99.99
2016-06-18T02:24:02.075Z,99.99
2016-06-18T02:25:02.109Z,99.99
2016-06-18T02:26:02.144Z,99.99
2016-06-18T02:27:02.788Z,99.99
2016-06-18T02:28:02.213Z,99.99
2016-06-18T02:29:02.857Z,99.99
2016-06-18T02:30:02.283Z,99.99
2016-06-18T02:31:02.317Z,99.99
2016-06-18T02:32:02.353Z,99.99
2016-06-18T02:33:02.403Z,99.99
2016-06-18T02:34:02.437Z,99.99
2016-06-18T02:35:03.081Z,99.99
2016-06-18T02:36:02.507Z,99.99
2016-06-18T02:37:02.525Z,99.99
2016-06-18T02:38:03.185Z,99.99
2016-06-18T02:39:03.220Z,99.99
2016-06-18T02:40:03.256Z,99.99
2016-06-18T02:41:02.680Z,99.99
2016-06-18T02:42:02.730Z,99.99
2016-06-18T02:43:03.374Z,99.99
2016-06-18T02:44:03.394Z,99.99
2016-06-18T02:45:03.429Z,99.99
2016-06-18T02:46:02.868Z,99.99
2016-06-18T02:47:03.497Z,99.99
2016-06-18T02:48:03.548Z,99.99
2016-06-18T02:49:03.584Z,99.99
2016-06-18T02:50:03.007Z,99.99
2016-06-18T02:51:03.652Z,99.99
2016-06-18T02:52:03.094Z,99.99
2016-06-18T02:53:03.722Z,99.99
2016-06-18T02:54:03.146Z,99.99
2016-06-18T02:55:03.197Z,99.99
2016-06-18T02:56:03.841Z,99.99
2016-06-18T02:57:03.251Z,99.99
2016-06-18T02:58:03.911Z,99.99
2016-06-18T02:59:03.946Z,99.99
2016-06-18T03:00:03.980Z,99.99
2016-06-18T03:01:03.406Z,99.99
2016-06-18T03:02:03.440Z,99.99
2016-06-18T03:03:04.085Z,99.99
2016-06-18T03:04:04.119Z,99.99
2016-06-18T03:05:03.559Z,99.99
2016-06-18T03:06:04.188Z,99.99
2016-06-18T03:07:03.630Z,99.99
2016-06-18T03:08:04.258Z,99.99
2016-06-18T03:09:04.292Z,99.99
2016-06-18T03:10:03.734Z,99.99
2016-06-18T03:11:04.362Z,99.99
2016-06-18T03:12:04.413Z,99.99
2016-06-18T03:13:03.837Z,99.99
2016-06-18T03:14:03.872Z,99.99
2016-06-18T03:15:04.516Z,99.99
2016-06-18T03:16:04.552Z,99.99
2016-06-18T03:17:04.586Z,99.99
2016-06-18T03:18:04.637Z,99.99
2016-06-18T03:19:04.062Z,99.99
2016-06-18T03:20:04.705Z,99.99
2016-06-18T03:21:04.131Z,99.99
2016-06-18T03:22:04.166Z,99.99
2016-06-18T03:23:04.200Z,99.99
2016-06-18T03:24:04.844Z,99.99
2016-06-18T03:25:04.270Z,99.99
2016-06-18T03:26:04.914Z,99.99
2016-06-18T03:27:04.948Z,99.99
2016-06-18T03:28:04.374Z,99.99
2016-06-18T03:29:05.033Z,99.99
2016-06-18T03:30:04.459Z,99.99
2016-06-18T03:31:04.479Z,99.99
2016-06-18T03:32:04.527Z,99.99
2016-06-18T03:33:04.563Z,99.99
2016-06-18T03:34:05.207Z,99.99
2016-06-18T03:35:05.243Z,99.99
2016-06-18T03:36:05.276Z,99.99
2016-06-18T03:37:05.311Z,99.99
2016-06-18T03:38:04.737Z,99.99
2016-06-18T03:39:04.802Z,99.99
2016-06-18T03:40:05.431Z,99.99
2016-06-18T03:41:04.856Z,99.99
2016-06-18T03:42:04.891Z,99.99
2016-06-18T03:43:04.926Z,99.99
2016-06-18T03:44:05.570Z,99.99
2016-06-18T03:45:04.995Z,99.99
2016-06-18T03:46:05.030Z,99.99
2016-06-18T03:47:05.674Z,99.99
2016-06-18T03:48:05.708Z,99.99
2016-06-18T03:49:05.744Z,99.99
2016-06-18T03:50:05.184Z,99.99
2016-06-18T03:51:05.844Z,99.99
2016-06-18T03:52:05.254Z,99.99
2016-06-18T03:53:05.289Z,99.99
2016-06-18T03:54:05.933Z,99.99
2016-06-18T03:55:05.967Z,99.99
2016-06-18T03:56:05.393Z,99.99
2016-06-18T03:57:05.427Z,99.99
2016-06-18T03:58:05.462Z,99.99
2016-06-18T03:59:05.512Z,99.99
2016-06-18T04:00:06.141Z,99.99
2016-06-18T04:01:06.191Z,99.99
2016-06-18T04:02:06.226Z,99.99
2016-06-18T04:03:06.260Z,99.99
2016-06-18T04:04:06.296Z,99.99
2016-06-18T04:05:06.346Z,99.99
2016-06-18T04:06:06.364Z,99.99
2016-06-18T04:07:05.790Z,99.99
2016-06-18T04:08:06.435Z,99.99
2016-06-18T04:09:06.469Z,99.99
2016-06-18T04:10:05.896Z,99.99
2016-06-18T04:11:06.546Z,99.99
2016-06-18T04:12:05.994Z,99.99
2016-06-18T04:13:06.645Z,99.99
2016-06-18T04:14:06.684Z,99.99
2016-06-18T04:15:06.115Z,99.99
2016-06-18T04:16:06.761Z,99.99
2016-06-18T04:17:06.799Z,99.99
2016-06-18T04:18:06.241Z,99.99
2016-06-18T04:19:06.888Z,99.99
2016-06-18T04:20:06.299Z,99.99
2016-06-18T04:21:06.945Z,99.99
2016-06-18T04:22:06.979Z,99.99
2016-06-18T04:23:07.032Z,99.99
2016-06-18T04:24:06.457Z,99.99
2016-06-18T04:25:07.101Z,99.99
2016-06-18T04:26:07.136Z,99.99
2016-06-18T04:27:07.157Z,99.99
2016-06-18T04:28:06.598Z,99.99
2016-06-18T04:29:06.633Z,99.99
2016-06-18T04:30:07.277Z,99.99
2016-06-18T04:31:07.327Z,99.99
2016-06-18T04:32:06.737Z,99.99
2016-06-18T04:33:06.787Z,99.99
2016-06-18T04:34:07.431Z,99.99
2016-06-18T04:35:06.857Z,99.99
2016-06-18T04:36:07.486Z,99.99
2016-06-18T04:37:07.519Z,99.99
2016-06-18T04:38:07.570Z,99.99
2016-06-18T04:39:07.621Z,99.99
2016-06-18T04:40:07.030Z,99.99
2016-06-18T04:41:07.080Z,99.99
2016-06-18T04:42:07.725Z,99.99
2016-06-18T04:43:07.743Z,99.99
2016-06-18T04:44:07.169Z,99.99
2016-06-18T04:45:07.814Z,99.99
2016-06-18T04:46:07.864Z,99.99
2016-06-18T04:47:07.898Z,99.99
2016-06-18T04:48:07.933Z,99.99
2016-06-18T04:49:07.967Z,99.99
2016-06-18T04:50:07.393Z,99.99
2016-06-18T04:51:08.037Z,99.99
2016-06-18T04:52:08.072Z,99.99
2016-06-18T04:53:07.497Z,99.99
2016-06-18T04:54:08.141Z,99.99
2016-06-18T04:55:08.192Z,99.99
2016-06-18T04:56:08.226Z,99.99
2016-06-18T04:57:08.245Z,99.99
2016-06-18T04:58:08.311Z,99.99
2016-06-18T04:59:07.721Z,99.99
2016-06-18T05:00:08.365Z,99.99
2016-06-18T05:01:07.790Z,99.99
2016-06-18T05:02:08.434Z,99.99
2016-06-18T05:03:07.860Z,99.99
2016-06-18T05:04:08.535Z,99.99
2016-06-18T05:05:08.539Z,99.99
2016-06-18T05:06:08.589Z,99.99
2016-06-18T05:07:08.623Z,99.99
2016-06-18T05:08:08.049Z,99.99
2016-06-18T05:09:08.084Z,99.99
2016-06-18T05:10:08.711Z,99.99
2016-06-18T05:11:08.153Z,99.99
2016-06-18T05:12:08.204Z,99.99
2016-06-18T05:13:08.223Z,99.99
2016-06-18T05:14:08.272Z,99.99
2016-06-18T05:15:08.917Z,99.99
2016-06-18T05:16:08.342Z,99.99
2016-06-18T05:17:08.377Z,99.99
2016-06-18T05:18:08.397Z,99.99
2016-06-18T05:19:09.055Z,99.99
2016-06-18T05:20:08.481Z,99.99
2016-06-18T05:21:09.125Z,99.99
2016-06-18T05:22:08.566Z,99.99
2016-06-18T05:23:09.210Z,99.99
2016-06-18T05:24:09.246Z,99.99
2016-06-18T05:25:09.279Z,99.99
2016-06-18T05:26:08.705Z,99.99
2016-06-18T05:27:08.740Z,99.99
2016-06-18T05:28:09.384Z,99.99
2016-06-18T05:29:09.418Z,99.99
2016-06-18T05:30:09.500Z,99.99
2016-06-18T05:31:09.487Z,99.99
2016-06-18T05:32:08.929Z,99.99
2016-06-18T05:33:08.964Z,99.99
2016-06-18T05:34:09.607Z,99.99
2016-06-18T05:35:09.626Z,99.99
2016-06-18T05:36:09.068Z,99.99
2016-06-18T05:37:09.102Z,99.99
2016-06-18T05:38:09.136Z,99.99
2016-06-18T05:39:09.172Z,99.99
2016-06-18T05:40:09.832Z,99.99
2016-06-18T05:41:09.241Z,99.99
2016-06-18T05:42:09.886Z,99.99
2016-06-18T05:43:09.936Z,99.99
2016-06-18T05:44:09.361Z,99.99
2016-06-18T05:45:10.005Z,99.99
2016-06-18T05:46:09.430Z,99.99
2016-06-18T05:47:09.465Z,99.99
2016-06-18T05:48:10.109Z,99.99
2016-06-18T05:49:10.144Z,99.99
2016-06-18T05:50:09.585Z,99.99
2016-06-18T05:51:10.229Z,99.99
2016-06-18T05:52:09.654Z,99.99
2016-06-18T05:53:09.688Z,99.99
2016-06-18T05:54:10.333Z,99.99
2016-06-18T05:55:09.774Z,99.99
2016-06-18T05:56:10.403Z,99.99
2016-06-18T05:57:10.438Z,99.99
2016-06-18T05:58:09.878Z,99.99
2016-06-18T05:59:09.913Z,99.99
2016-06-18T06:00:10.557Z,99.99
2016-06-18T06:01:09.982Z,99.99
2016-06-18T06:02:10.017Z,99.99
2016-06-18T06:03:10.661Z,99.99
2016-06-18T06:04:10.695Z,99.99
2016-06-18T06:05:10.730Z,99.99
2016-06-18T06:06:10.172Z,99.99
2016-06-18T06:07:10.206Z,99.99
2016-06-18T06:08:10.240Z,99.99
2016-06-18T06:09:10.276Z,99.99
2016-06-18T06:10:10.919Z,99.99
2016-06-18T06:11:10.345Z,99.99
2016-06-18T06:12:10.379Z,99.99
2016-06-18T06:13:10.414Z,99.99
2016-06-18T06:14:10.465Z,99.99
2016-06-18T06:15:10.499Z,99.99
2016-06-18T06:16:11.143Z,99.99
2016-06-18T06:17:11.179Z,99.99
2016-06-18T06:18:11.229Z,99.99
2016-06-18T06:19:10.638Z,99.99
2016-06-18T06:20:11.282Z,99.99
2016-06-18T06:21:11.317Z,99.99
2016-06-18T06:22:11.351Z,99.99
2016-06-18T06:23:11.402Z,99.99
2016-06-18T06:24:11.436Z,99.99
2016-06-18T06:25:11.472Z,99.99
2016-06-18T06:26:10.897Z,99.99
2016-06-18T06:27:10.932Z,99.99
2016-06-18T06:28:11.594Z,99.99
2016-06-18T06:29:11.003Z,99.99
2016-06-18T06:30:11.055Z,99.99
2016-06-18T06:31:11.090Z,99.99
2016-06-18T06:32:11.735Z,99.99
2016-06-18T06:33:11.176Z,99.99
2016-06-18T06:34:11.195Z,99.99
2016-06-18T06:35:11.246Z,99.99
2016-06-18T06:36:11.265Z,99.99
2016-06-18T06:37:11.925Z,99.99
2016-06-18T06:38:11.349Z,99.99
2016-06-18T06:39:11.994Z,99.99
2016-06-18T06:40:12.029Z,99.99
2016-06-18T06:41:11.455Z,99.99
2016-06-18T06:42:11.488Z,99.99
2016-06-18T06:43:11.774Z,99.99
2016-06-18T06:44:12.167Z,99.99
2016-06-18T06:45:11.609Z,99.99
2016-06-18T06:46:12.253Z,99.99
2016-06-18T06:47:12.288Z,99.99
2016-06-18T06:48:12.322Z,99.99
2016-06-18T06:49:11.748Z,99.99
2016-06-18T06:50:12.392Z,99.99
2016-06-18T06:51:11.849Z,99.99
2016-06-18T06:52:11.868Z,99.99
2016-06-18T06:53:12.511Z,99.99
2016-06-18T06:54:11.937Z,99.99
2016-06-18T06:55:12.597Z,99.99
2016-06-18T06:56:12.631Z,99.99
2016-06-18T06:57:12.651Z,99.99
2016-06-18T06:58:12.091Z,99.99
2016-06-18T06:59:12.126Z,99.99
2016-06-18T07:00:12.161Z,99.99
2016-06-18T07:01:12.805Z,99.99
2016-06-18T07:02:12.840Z,99.99
2016-06-18T07:03:12.891Z,99.99
2016-06-18T07:04:12.924Z,99.99
2016-06-18T07:05:12.350Z,99.99
2016-06-18T07:06:12.401Z,99.99
2016-06-18T07:07:12.419Z,99.99
2016-06-18T07:08:12.470Z,99.99
2016-06-18T07:09:13.114Z,99.99
2016-06-18T07:10:13.148Z,99.99
2016-06-18T07:11:13.199Z,99.99
2016-06-18T07:12:12.640Z,99.99
2016-06-18T07:13:12.659Z,99.99
2016-06-18T07:14:12.694Z,99.99
2016-06-18T07:15:12.727Z,99.99
2016-06-18T07:16:13.372Z,99.99
2016-06-18T07:17:13.406Z,99.99
2016-06-18T07:18:12.848Z,99.99
2016-06-18T07:19:13.492Z,99.99
2016-06-18T07:20:13.528Z,99.99
2016-06-18T07:21:13.561Z,99.99
2016-06-18T07:22:13.002Z,99.99
2016-06-18T07:23:13.646Z,99.99
2016-06-18T07:24:13.681Z,99.99
2016-06-18T07:25:13.731Z,99.99
2016-06-18T07:26:13.766Z,99.99
2016-06-18T07:27:13.192Z,99.99
2016-06-18T07:28:13.835Z,99.99
2016-06-18T07:29:13.870Z,99.99
2016-06-18T07:30:13.326Z,99.73
2016-06-18T07:31:13.955Z,99.68
2016-06-18T07:32:14.006Z,99.3
2016-06-18T07:33:13.431Z,98.91
2016-06-18T07:34:13.466Z,98.86
2016-06-18T07:35:13.516Z,97.52
2016-06-18T07:36:13.567Z,95.94
2016-06-18T07:37:14.195Z,95.07
2016-06-18T07:38:14.229Z,95.02
2016-06-18T07:39:13.671Z,94.68
2016-06-18T07:40:14.314Z,94.16
2016-06-18T07:41:13.756Z,93.53
2016-06-18T07:42:14.384Z,93.82
2016-06-18T07:43:14.434Z,93.82
2016-06-18T07:44:13.860Z,93.73
2016-06-18T07:45:14.503Z,94.06
2016-06-18T07:46:13.945Z,95.36
2016-06-18T07:47:13.996Z,96.37
2016-06-18T07:48:14.686Z,95.89
2016-06-18T07:49:14.064Z,97.14
2016-06-18T07:50:14.724Z,97.66
2016-06-18T07:51:14.760Z,98.14
2016-06-18T07:52:14.184Z,99.87
2016-06-18T07:53:14.234Z,99.99
2016-06-18T07:54:14.269Z,99.99
2016-06-18T07:55:14.929Z,99.99
2016-06-18T07:56:14.963Z,99.99
2016-06-18T07:57:14.405Z,99.99
2016-06-18T07:58:14.440Z,99.99
2016-06-18T07:59:15.084Z,99.99
2016-06-18T08:00:15.118Z,99.99
2016-06-18T08:01:15.169Z,99.99
2016-06-18T08:02:15.203Z,99.99
2016-06-18T08:03:15.238Z,99.99
2016-06-18T08:04:14.663Z,99.99
2016-06-18T08:05:14.714Z,99.99
2016-06-18T08:06:14.764Z,99.99
2016-06-18T08:07:14.782Z,99.99
2016-06-18T08:08:15.443Z,99.99
2016-06-18T08:09:15.477Z,99.99
2016-06-18T08:10:14.903Z,99.99
2016-06-18T08:11:15.562Z,99.99
2016-06-18T08:12:14.988Z,99.99
2016-06-18T08:13:15.023Z,99.99
2016-06-18T08:14:15.056Z,99.99
2016-06-18T08:15:15.718Z,99.99
2016-06-18T08:16:15.157Z,99.99
2016-06-18T08:17:15.786Z,99.99
2016-06-18T08:18:15.227Z,99.99
2016-06-18T08:19:15.872Z,99.99
2016-06-18T08:20:15.297Z,99.99
2016-06-18T08:21:15.941Z,99.99
2016-06-18T08:22:15.366Z,99.99
2016-06-18T08:23:16.026Z,99.99
2016-06-18T08:24:15.451Z,99.99
2016-06-18T08:25:16.095Z,99.99
2016-06-18T08:26:15.537Z,99.99
2016-06-18T08:27:15.571Z,99.99
2016-06-18T08:28:16.215Z,99.99
2016-06-18T08:29:15.640Z,99.99
2016-06-18T08:30:15.691Z,99.99
2016-06-18T08:31:15.726Z,99.99
2016-06-18T08:32:15.760Z,99.99
2016-06-18T08:33:15.795Z,99.99
2016-06-18T08:34:15.830Z,99.99
2016-06-18T08:35:16.473Z,99.99
2016-06-18T08:36:15.915Z,99.99
2016-06-18T08:37:16.574Z,99.99
2016-06-18T08:38:16.594Z,99.99
2016-06-18T08:39:16.643Z,99.99
2016-06-18T08:40:16.069Z,99.99
2016-06-18T08:41:16.104Z,99.99
2016-06-18T08:42:16.138Z,99.78
2016-06-18T08:43:16.191Z,99.06
2016-06-18T08:47:07.375Z,95.65
2016-06-18T08:47:17.391Z,95.84
2016-06-18T08:47:34.562Z,98.34
2016-06-18T08:48:35.226Z,98.14
2016-06-18T08:49:35.247Z,98.43
2016-06-18T08:50:34.690Z,98.05
2016-06-18T08:51:34.726Z,97.76
2016-06-18T08:52:34.778Z,98.34
2016-06-18T08:53:35.408Z,98.14
2016-06-18T08:54:34.895Z,98.43
2016-06-18T08:55:34.900Z,98.43
2016-06-18T08:56:35.544Z,98.58
2016-06-18T08:57:34.985Z,97.71
2016-06-18T08:58:35.021Z,95.5
2016-06-18T08:59:35.665Z,94.64
2016-06-18T09:00:35.090Z,94.06
2016-06-18T09:01:35.142Z,92.47
2016-06-18T09:02:35.787Z,89.25
2016-06-18T09:03:35.836Z,88.18
2016-06-18T09:04:35.261Z,85.24
2016-06-18T09:05:35.312Z,84.7
2016-06-18T09:06:35.347Z,83.16
2016-06-18T09:07:35.396Z,84.07
2016-06-18T09:08:36.041Z,84.7
2016-06-18T09:09:36.092Z,86.44
2016-06-18T09:10:35.517Z,86.49
2016-06-18T09:11:35.551Z,87.74
2016-06-18T09:12:35.602Z,89.29
2016-06-18T09:13:35.653Z,90.06
2016-06-18T09:14:36.296Z,91.7
2016-06-18T09:15:35.721Z,92.33
2016-06-18T09:16:35.772Z,93.15
2016-06-18T09:17:36.432Z,93.34
2016-06-18T09:20:10.816Z,94.45
2016-06-18T09:21:10.913Z,96.56
2016-06-18T09:22:11.541Z,96.7
2016-06-18T09:23:11.576Z,96.8
2016-06-18T09:24:11.017Z,97.09
2016-06-18T09:25:11.052Z,97.09
2016-06-18T09:26:11.711Z,97.09
2016-06-18T09:27:11.746Z,96.66
2016-06-18T09:28:11.828Z,97.19
2016-06-18T09:29:11.831Z,97.86
2016-06-18T09:31:11.885Z,98.43
2016-06-18T09:32:11.327Z,98.34
2016-06-18T09:33:11.955Z,98.82
2016-06-18T09:34:12.005Z,99.2
2016-06-18T09:35:12.040Z,99.99
2016-06-18T09:36:12.090Z,99.99
2016-06-18T09:37:12.140Z,99.99
2016-06-18T09:38:11.550Z,99.99
2016-06-18T09:39:12.210Z,98.48
2016-06-18T09:40:12.541Z,99.01
2016-06-18T09:41:12.280Z,99.1
2016-06-18T09:42:12.330Z,99.82
2016-06-18T09:43:12.380Z,99.25
2016-06-18T09:44:12.398Z,99.99
2016-06-18T09:45:11.840Z,99.99
2016-06-18T09:46:12.500Z,99.99
2016-06-18T09:47:11.909Z,99.99
2016-06-18T09:48:11.959Z,99.99
2016-06-18T09:49:12.604Z,99.99
2016-06-18T09:50:12.638Z,99.99
2016-06-18T09:51:12.079Z,99.99
2016-06-18T09:52:12.724Z,99.99
2016-06-18T09:53:12.149Z,99.99
2016-06-18T09:54:12.808Z,99.99
2016-06-18T09:55:12.234Z,99.99
2016-06-18T09:56:12.268Z,99.99
2016-06-18T09:57:12.303Z,99.99
2016-06-18T09:58:12.947Z,99.99
2016-06-18T09:59:12.997Z,99.99
2016-06-18T10:00:13.032Z,99.99
2016-06-18T10:01:13.066Z,99.99
2016-06-18T10:02:13.117Z,99.99
2016-06-18T10:03:13.152Z,99.99
2016-06-18T10:04:13.187Z,99.99
2016-06-18T10:05:13.237Z,99.99
2016-06-18T10:06:12.678Z,99.99
2016-06-18T10:07:13.306Z,99.99
2016-06-18T10:08:12.732Z,99.99
2016-06-18T10:09:12.783Z,99.92
2016-06-18T10:10:13.427Z,99.99
2016-06-18T10:11:13.461Z,99.99
2016-06-18T10:12:13.527Z,99.99
2016-06-18T10:13:13.546Z,98.96
2016-06-18T10:14:13.580Z,99.92
2016-06-18T10:15:13.021Z,99.73
2016-06-18T10:16:13.056Z,99.99
2016-06-18T10:17:13.716Z,99.99
2016-06-18T10:18:13.735Z,99.99
2016-06-18T10:19:13.801Z,99.99
2016-06-18T10:20:13.212Z,99.99
2016-06-18T10:21:13.324Z,99.99
2016-06-18T10:22:13.905Z,99.99
2016-06-18T10:23:13.331Z,99.99
2016-06-18T10:24:13.975Z,99.99
2016-06-18T10:25:14.040Z,99.99
2016-06-18T10:26:14.059Z,99.99
2016-06-18T10:27:14.094Z,99.99
2016-06-18T10:28:14.144Z,99.99
2016-06-18T10:29:13.554Z,99.99
2016-06-18T10:30:14.198Z,99.99
2016-06-18T10:31:14.249Z,99.99
2016-06-18T10:32:14.283Z,99.99
2016-06-18T10:33:13.709Z,99.99
2016-06-18T10:34:14.368Z,99.99
2016-06-18T10:35:13.794Z,99.99
2016-06-18T10:36:14.438Z,99.99
2016-06-18T10:37:14.503Z,99.99
2016-06-18T10:38:14.507Z,99.99
2016-06-18T10:39:13.933Z,99.99
2016-06-18T10:40:13.999Z,99.99
2016-06-18T10:41:14.017Z,99.99
2016-06-18T10:42:14.068Z,99.99
2016-06-18T10:43:14.696Z,99.99
2016-06-18T10:44:14.137Z,99.99
2016-06-18T10:45:14.173Z,99.99
2016-06-18T10:46:14.207Z,99.99
2016-06-18T10:47:14.851Z,99.99
2016-06-18T10:48:14.901Z,99.99
2016-06-18T10:49:14.936Z,99.99
2016-06-18T10:50:14.362Z,99.99
2016-06-18T10:51:14.412Z,99.99
2016-06-18T10:52:15.056Z,99.99
2016-06-18T10:53:14.481Z,99.99
2016-06-18T10:54:14.548Z,99.99
2016-06-18T10:55:15.160Z,99.99
2016-06-18T10:56:14.600Z,99.99
2016-06-18T10:57:14.636Z,99.99
2016-06-18T10:58:15.264Z,99.99
2016-06-18T10:59:15.315Z,99.99
2016-06-18T11:00:15.350Z,99.99
2016-06-18T11:01:15.400Z,99.99
2016-06-18T11:02:14.809Z,99.99
2016-06-18T11:03:15.469Z,99.99
2016-06-18T11:04:15.519Z,99.99
2016-06-18T11:05:14.929Z,99.99
2016-06-18T11:06:14.979Z,99.99
2016-06-18T11:07:15.624Z,99.99
2016-06-18T11:08:15.658Z,99.99
2016-06-18T11:09:15.084Z,99.99
2016-06-18T11:10:15.134Z,99.99
2016-06-18T11:11:15.777Z,99.99
2016-06-18T11:12:15.813Z,99.01
2016-06-18T11:13:15.847Z,99.63
2016-06-18T11:14:15.897Z,98.86
2016-06-18T11:15:15.932Z,98.24
2016-06-18T11:16:15.373Z,98.82
2016-06-18T11:17:15.408Z,98.72
2016-06-18T11:18:15.443Z,98.72
2016-06-18T11:19:15.477Z,99.11
2016-06-18T11:20:16.137Z,99.99
2016-06-18T11:21:15.562Z,99.99
2016-06-18T11:22:16.223Z,99.99
2016-06-18T11:23:15.647Z,99.4
2016-06-18T11:24:16.292Z,99.99
2016-06-18T11:25:15.730Z,99.99
2016-06-18T11:26:15.781Z,99.99
2016-06-18T11:27:15.800Z,99.99
2016-06-18T11:28:16.444Z,99.99
2016-06-18T11:29:15.885Z,98.63
2016-06-18T11:30:16.529Z,96.27
2016-06-18T11:31:16.564Z,96.47
2016-06-18T11:32:16.615Z,95.84
2016-06-18T11:33:16.649Z,94.68
2016-06-18T11:34:16.699Z,96.37
2016-06-18T11:41:18.526Z,95.98
2016-06-18T11:42:18.560Z,96.17
2016-06-18T11:43:18.611Z,97.04
2016-06-18T11:44:18.037Z,97.14
2016-06-18T11:45:18.696Z,97.14
2016-06-18T11:46:18.731Z,97.14
2016-06-18T11:47:18.158Z,97.71
2016-06-18T11:48:18.206Z,97.09
2016-06-18T11:49:18.257Z,97.86
2016-06-18T11:50:18.901Z,97.28
2016-06-18T11:51:18.327Z,98.14
2016-06-18T11:52:18.971Z,98.05
2016-06-18T11:53:18.396Z,96.37
2016-06-18T11:54:18.447Z,94.68
2016-06-18T11:55:18.481Z,94.88
2016-06-18T11:56:19.173Z,94.78
2016-06-18T11:57:18.567Z,93.73
2016-06-18T11:58:19.227Z,94.45
2016-06-18T11:59:19.263Z,93.73
2016-06-18T12:00:19.298Z,94.4
2016-06-18T12:01:19.350Z,94.4
2016-06-18T12:02:18.776Z,96.13
2016-06-18T12:03:18.811Z,96.75
2016-06-18T12:04:19.473Z,97.62
2016-06-18T12:05:19.522Z,98.29
2016-06-18T12:06:18.948Z,97.24
2016-06-18T12:07:19.609Z,97.52
2016-06-18T12:08:19.628Z,98.1
2016-06-18T12:09:19.678Z,98.77
2016-06-18T12:10:19.120Z,97.81
2016-06-18T12:11:19.154Z,96.47
2016-06-18T12:12:19.189Z,97.71
2016-06-18T12:13:19.223Z,97.66
2016-06-18T12:14:19.883Z,97.76
2016-06-18T12:15:19.308Z,96.7
2016-06-18T12:16:19.953Z,96.99
2016-06-18T12:17:20.003Z,96.8
2016-06-18T12:18:20.039Z,97.28
2016-06-18T12:19:20.073Z,98.24
2016-06-18T12:20:20.124Z,98.24
2016-06-18T12:21:20.160Z,97.28
2016-06-18T12:22:20.194Z,98.53
2016-06-18T12:23:20.244Z,98.82
2016-06-18T12:24:19.670Z,98.72
2016-06-18T12:25:19.720Z,98.86
2016-06-18T12:26:19.755Z,98.96
2016-06-18T12:27:19.789Z,98.86
2016-06-18T12:28:20.465Z,99.92
2016-06-18T12:29:20.484Z,99.99
2016-06-18T12:30:19.956Z,99.49
2016-06-18T12:31:20.553Z,99.99
2016-06-18T12:32:20.603Z,99.99
2016-06-18T12:33:20.669Z,99.99
2016-06-18T12:34:20.672Z,99.4
2016-06-18T12:35:20.723Z,96.03
2016-06-18T12:36:20.758Z,92.23
2016-06-18T12:37:20.199Z,89.72
2016-06-18T12:38:20.234Z,87.55
2016-06-18T12:39:20.878Z,84.61
2016-06-18T12:40:20.319Z,80.58
2016-06-18T12:41:20.979Z,77.86
2016-06-18T12:42:21.013Z,77.15
2016-06-18T12:43:20.454Z,74.9
2016-06-18T12:44:21.099Z,75.97
2016-06-18T12:45:21.149Z,75.2
2016-06-18T12:46:20.574Z,72.42
2016-06-18T12:47:21.250Z,72.08
2016-06-18T12:48:21.299Z,70.31
2016-06-18T12:49:20.725Z,70.7
2016-06-18T12:50:21.400Z,69.63
2016-06-18T12:51:21.435Z,69.43
2016-06-18T12:52:21.471Z,67.44
2016-06-18T12:53:20.912Z,67.18
2016-06-18T12:54:20.962Z,67.08
2016-06-18T12:55:21.622Z,68.02
2016-06-18T12:56:21.064Z,68.08
2016-06-18T12:57:21.724Z,69.59
2016-06-18T12:58:21.180Z,68.33
2016-06-18T12:59:21.824Z,69.85
2016-06-18T13:00:21.265Z,69.53
2016-06-18T13:01:21.925Z,71.84
2016-06-18T13:02:22.007Z,71.75
2016-06-18T13:03:22.025Z,72.14
2016-06-18T13:04:21.466Z,71.08